sensor_id;sensor_type;location;lat;lon;timestamp;pressure;altitude;pressure_sealevel;temperature;humidity
47670;BME280;33408;52.062;11.722;2023-07-02T00:01:34;100092.19;;;18.02;100.00
47670;BME280;33408;52.062;11.722;2023-07-02T00:04:00;100095.16;;;17.96;100.00
47670;BME280;33408;52.062;11.722;2023-07-02T00:06:27;100092.53;;;17.96;100.00
47670;BME280;33408;52.062;11.722;2023-07-02T00:08:54;100096.78;;;17.98;100.00
47670;BME280;33408;52.062;11.722;2023-07-02T00:11:20;100091.03;;;17.92;100.00
47670;BME280;33408;52.062;11.722;2023-07-02T00:13:47;100095.72;;;18.01;100.00
47670;BME280;33408;52.062;11.722;2023-07-02T00:16:15;100091.28;;;17.87;100.00
47670;BME280;33408;52.062;11.722;2023-07-02T00:18:41;100098.34;;;18.01;100.00
47670;BME280;33408;52.062;11.722;2023-07-02T00:21:08;100093.28;;;17.98;100.00
47670;BME280;33408;52.062;11.722;2023-07-02T00:23:38;100097.97;;;17.93;100.00
47670;BME280;33408;52.062;11.722;2023-07-02T00:26:05;100089.28;;;17.92;100.00
47670;BME280;33408;52.062;11.722;2023-07-02T00:28:31;100088.22;;;17.95;100.00
47670;BME280;33408;52.062;11.722;2023-07-02T00:30:58;100092.81;;;17.91;100.00
47670;BME280;33408;52.062;11.722;2023-07-02T00:33:26;100094.25;;;17.97;100.00
47670;BME280;33408;52.062;11.722;2023-07-02T00:35:54;100089.91;;;17.96;100.00
47670;BME280;33408;52.062;11.722;2023-07-02T00:38:21;100086.38;;;17.97;100.00
47670;BME280;33408;52.062;11.722;2023-07-02T00:40:48;100081.31;;;17.94;100.00
47670;BME280;33408;52.062;11.722;2023-07-02T00:43:15;100080.91;;;17.85;100.00
47670;BME280;33408;52.062;11.722;2023-07-02T00:45:41;100088.31;;;17.93;100.00
47670;BME280;33408;52.062;11.722;2023-07-02T00:48:08;100082.66;;;17.85;100.00
47670;BME280;33408;52.062;11.722;2023-07-02T00:50:36;100073.94;;;17.84;100.00
47670;BME280;33408;52.062;11.722;2023-07-02T00:53:03;100071.78;;;17.77;100.00
47670;BME280;33408;52.062;11.722;2023-07-02T00:55:29;100074.66;;;17.72;100.00
47670;BME280;33408;52.062;11.722;2023-07-02T00:57:56;100070.28;;;17.73;100.00
47670;BME280;33408;52.062;11.722;2023-07-02T01:00:23;100071.38;;;17.68;100.00
47670;BME280;33408;52.062;11.722;2023-07-02T01:02:58;100071.47;;;17.67;100.00
47670;BME280;33408;52.062;11.722;2023-07-02T01:05:25;100075.03;;;17.66;100.00
47670;BME280;33408;52.062;11.722;2023-07-02T01:08:02;100070.56;;;17.68;100.00
47670;BME280;33408;52.062;11.722;2023-07-02T01:10:28;100070.00;;;17.63;100.00
47670;BME280;33408;52.062;11.722;2023-07-02T01:12:57;100076.47;;;17.72;100.00
47670;BME280;33408;52.062;11.722;2023-07-02T01:15:26;100070.66;;;17.66;100.00
47670;BME280;33408;52.062;11.722;2023-07-02T01:17:53;100078.34;;;17.70;100.00
47670;BME280;33408;52.062;11.722;2023-07-02T01:20:22;100075.16;;;17.79;100.00
47670;BME280;33408;52.062;11.722;2023-07-02T01:22:50;100081.78;;;17.70;100.00
47670;BME280;33408;52.062;11.722;2023-07-02T01:25:18;100074.50;;;17.75;100.00
47670;BME280;33408;52.062;11.722;2023-07-02T01:27:50;100084.31;;;17.72;100.00
47670;BME280;33408;52.062;11.722;2023-07-02T01:30:17;100077.19;;;17.74;100.00
47670;BME280;33408;52.062;11.722;2023-07-02T01:32:43;100084.88;;;17.77;100.00
47670;BME280;33408;52.062;11.722;2023-07-02T01:35:10;100087.78;;;17.72;100.00
47670;BME280;33408;52.062;11.722;2023-07-02T01:37:38;100086.03;;;17.73;100.00
47670;BME280;33408;52.062;11.722;2023-07-02T01:40:05;100080.69;;;17.74;100.00
47670;BME280;33408;52.062;11.722;2023-07-02T01:42:33;100087.59;;;17.75;100.00
47670;BME280;33408;52.062;11.722;2023-07-02T01:44:59;100093.50;;;17.79;100.00
47670;BME280;33408;52.062;11.722;2023-07-02T01:47:26;100098.75;;;17.79;100.00
47670;BME280;33408;52.062;11.722;2023-07-02T01:49:53;100095.63;;;17.72;100.00
47670;BME280;33408;52.062;11.722;2023-07-02T01:52:19;100098.09;;;17.75;100.00
47670;BME280;33408;52.062;11.722;2023-07-02T01:54:47;100101.16;;;17.67;100.00
47670;BME280;33408;52.062;11.722;2023-07-02T01:57:14;100095.25;;;17.64;100.00
47670;BME280;33408;52.062;11.722;2023-07-02T01:59:40;100099.16;;;17.57;100.00
47670;BME280;33408;52.062;11.722;2023-07-02T02:02:09;100100.56;;;17.62;100.00
47670;BME280;33408;52.062;11.722;2023-07-02T02:04:35;100096.56;;;17.57;100.00
47670;BME280;33408;52.062;11.722;2023-07-02T02:07:02;100099.16;;;17.57;100.00
47670;BME280;33408;52.062;11.722;2023-07-02T02:09:29;100099.09;;;17.58;100.00
47670;BME280;33408;52.062;11.722;2023-07-02T02:11:59;100100.44;;;17.49;100.00
47670;BME280;33408;52.062;11.722;2023-07-02T02:14:25;100098.03;;;17.61;100.00
47670;BME280;33408;52.062;11.722;2023-07-02T02:16:52;100092.31;;;17.54;100.00
47670;BME280;33408;52.062;11.722;2023-07-02T02:19:18;100094.75;;;17.57;100.00
47670;BME280;33408;52.062;11.722;2023-07-02T02:21:45;100102.81;;;17.54;100.00
47670;BME280;33408;52.062;11.722;2023-07-02T02:24:12;100091.47;;;17.54;100.00
47670;BME280;33408;52.062;11.722;2023-07-02T02:26:39;100092.75;;;17.46;100.00
47670;BME280;33408;52.062;11.722;2023-07-02T02:29:07;100095.94;;;17.52;100.00
47670;BME280;33408;52.062;11.722;2023-07-02T02:31:34;100101.91;;;17.39;100.00
47670;BME280;33408;52.062;11.722;2023-07-02T02:34:01;100103.44;;;17.27;100.00
47670;BME280;33408;52.062;11.722;2023-07-02T02:36:27;100103.34;;;17.29;100.00
47670;BME280;33408;52.062;11.722;2023-07-02T02:38:54;100098.88;;;17.31;100.00
47670;BME280;33408;52.062;11.722;2023-07-02T02:41:20;100103.53;;;17.26;100.00
47670;BME280;33408;52.062;11.722;2023-07-02T02:43:47;100105.03;;;17.30;100.00
47670;BME280;33408;52.062;11.722;2023-07-02T02:46:19;100099.66;;;17.17;100.00
47670;BME280;33408;52.062;11.722;2023-07-02T02:48:46;100100.63;;;17.30;100.00
47670;BME280;33408;52.062;11.722;2023-07-02T02:51:12;100100.47;;;17.34;100.00
47670;BME280;33408;52.062;11.722;2023-07-02T02:53:39;100103.81;;;17.21;100.00
47670;BME280;33408;52.062;11.722;2023-07-02T02:56:06;100104.88;;;17.17;100.00
47670;BME280;33408;52.062;11.722;2023-07-02T02:58:32;100108.78;;;17.10;100.00
47670;BME280;33408;52.062;11.722;2023-07-02T03:00:59;100108.72;;;17.11;100.00
47670;BME280;33408;52.062;11.722;2023-07-02T03:03:27;100103.38;;;17.13;100.00
47670;BME280;33408;52.062;11.722;2023-07-02T03:05:53;100099.16;;;17.10;100.00
47670;BME280;33408;52.062;11.722;2023-07-02T03:08:20;100103.19;;;17.16;100.00
47670;BME280;33408;52.062;11.722;2023-07-02T03:10:46;100103.88;;;17.20;100.00
47670;BME280;33408;52.062;11.722;2023-07-02T03:13:13;100103.03;;;17.19;100.00
47670;BME280;33408;52.062;11.722;2023-07-02T03:15:40;100102.19;;;17.19;100.00
47670;BME280;33408;52.062;11.722;2023-07-02T03:18:08;100098.56;;;17.21;100.00
47670;BME280;33408;52.062;11.722;2023-07-02T03:20:36;100101.34;;;17.18;100.00
47670;BME280;33408;52.062;11.722;2023-07-02T03:23:03;100111.91;;;17.17;100.00
47670;BME280;33408;52.062;11.722;2023-07-02T03:25:29;100114.28;;;17.21;100.00
47670;BME280;33408;52.062;11.722;2023-07-02T03:27:56;100122.97;;;17.22;100.00
47670;BME280;33408;52.062;11.722;2023-07-02T03:30:22;100116.75;;;17.08;100.00
47670;BME280;33408;52.062;11.722;2023-07-02T03:32:49;100115.69;;;17.11;100.00
47670;BME280;33408;52.062;11.722;2023-07-02T03:35:16;100122.72;;;17.10;100.00
47670;BME280;33408;52.062;11.722;2023-07-02T03:37:43;100126.19;;;17.11;100.00
47670;BME280;33408;52.062;11.722;2023-07-02T03:40:11;100121.09;;;17.08;100.00
47670;BME280;33408;52.062;11.722;2023-07-02T03:42:38;100131.84;;;17.03;100.00
47670;BME280;33408;52.062;11.722;2023-07-02T03:45:05;100128.63;;;16.98;100.00
47670;BME280;33408;52.062;11.722;2023-07-02T03:47:32;100130.31;;;16.99;100.00
47670;BME280;33408;52.062;11.722;2023-07-02T03:49:58;100127.03;;;17.11;100.00
47670;BME280;33408;52.062;11.722;2023-07-02T03:52:25;100125.69;;;17.04;100.00
47670;BME280;33408;52.062;11.722;2023-07-02T03:54:53;100136.47;;;16.98;100.00
47670;BME280;33408;52.062;11.722;2023-07-02T03:57:20;100149.25;;;17.04;100.00
47670;BME280;33408;52.062;11.722;2023-07-02T03:59:46;100141.63;;;17.16;100.00
47670;BME280;33408;52.062;11.722;2023-07-02T04:02:13;100150.09;;;17.21;100.00
47670;BME280;33408;52.062;11.722;2023-07-02T04:04:39;100150.63;;;17.11;100.00
47670;BME280;33408;52.062;11.722;2023-07-02T04:07:06;100154.72;;;17.16;100.00
47670;BME280;33408;52.062;11.722;2023-07-02T04:09:32;100154.66;;;17.33;100.00
47670;BME280;33408;52.062;11.722;2023-07-02T04:12:01;100150.88;;;17.23;100.00
47670;BME280;33408;52.062;11.722;2023-07-02T04:14:27;100149.00;;;17.25;100.00
47670;BME280;33408;52.062;11.722;2023-07-02T04:16:54;100145.00;;;17.18;100.00
47670;BME280;33408;52.062;11.722;2023-07-02T04:19:20;100144.09;;;17.19;100.00
47670;BME280;33408;52.062;11.722;2023-07-02T04:21:47;100147.53;;;17.97;100.00
47670;BME280;33408;52.062;11.722;2023-07-02T04:24:13;100136.09;;;19.68;100.00
47670;BME280;33408;52.062;11.722;2023-07-02T04:26:40;100143.47;;;20.54;100.00
47670;BME280;33408;52.062;11.722;2023-07-02T04:29:09;100135.16;;;21.59;100.00
47670;BME280;33408;52.062;11.722;2023-07-02T04:31:36;100130.41;;;22.22;95.38
47670;BME280;33408;52.062;11.722;2023-07-02T04:34:03;100132.63;;;22.73;88.65
47670;BME280;33408;52.062;11.722;2023-07-02T04:36:30;100132.09;;;22.91;85.85
47670;BME280;33408;52.062;11.722;2023-07-02T04:38:57;100128.75;;;22.77;83.82
47670;BME280;33408;52.062;11.722;2023-07-02T04:41:24;100135.50;;;22.59;84.62
47670;BME280;33408;52.062;11.722;2023-07-02T04:43:51;100127.31;;;22.96;83.29
47670;BME280;33408;52.062;11.722;2023-07-02T04:46:18;100129.88;;;22.64;84.01
47670;BME280;33408;52.062;11.722;2023-07-02T04:48:45;100132.59;;;23.07;82.01
47670;BME280;33408;52.062;11.722;2023-07-02T04:51:12;100134.13;;;23.10;79.96
47670;BME280;33408;52.062;11.722;2023-07-02T04:53:39;100134.19;;;23.96;77.26
47670;BME280;33408;52.062;11.722;2023-07-02T04:56:05;100131.13;;;24.00;73.93
47670;BME280;33408;52.062;11.722;2023-07-02T04:58:32;100130.84;;;23.29;76.84
47670;BME280;33408;52.062;11.722;2023-07-02T05:00:58;100137.13;;;24.24;76.10
47670;BME280;33408;52.062;11.722;2023-07-02T05:03:27;100138.56;;;21.72;83.11
47670;BME280;33408;52.062;11.722;2023-07-02T05:05:53;100143.69;;;20.26;96.80
47670;BME280;33408;52.062;11.722;2023-07-02T05:08:20;100145.78;;;19.13;100.00
47670;BME280;33408;52.062;11.722;2023-07-02T05:10:47;100152.66;;;18.72;100.00
47670;BME280;33408;52.062;11.722;2023-07-02T05:13:13;100155.28;;;18.44;100.00
47670;BME280;33408;52.062;11.722;2023-07-02T05:15:40;100160.97;;;18.21;100.00
47670;BME280;33408;52.062;11.722;2023-07-02T05:18:06;100153.19;;;18.20;100.00
47670;BME280;33408;52.062;11.722;2023-07-02T05:20:34;100154.59;;;18.26;100.00
47670;BME280;33408;52.062;11.722;2023-07-02T05:23:01;100153.00;;;18.23;100.00
47670;BME280;33408;52.062;11.722;2023-07-02T05:25:27;100156.38;;;18.25;100.00
47670;BME280;33408;52.062;11.722;2023-07-02T05:27:54;100155.91;;;18.33;100.00
47670;BME280;33408;52.062;11.722;2023-07-02T05:30:20;100156.72;;;18.19;100.00
47670;BME280;33408;52.062;11.722;2023-07-02T05:32:47;100156.66;;;18.35;100.00
47670;BME280;33408;52.062;11.722;2023-07-02T05:35:14;100154.72;;;18.24;100.00
47670;BME280;33408;52.062;11.722;2023-07-02T05:37:42;100158.19;;;18.39;100.00
47670;BME280;33408;52.062;11.722;2023-07-02T05:40:09;100153.78;;;18.39;100.00
47670;BME280;33408;52.062;11.722;2023-07-02T05:42:36;100156.38;;;18.39;100.00
47670;BME280;33408;52.062;11.722;2023-07-02T05:45:03;100157.41;;;18.22;100.00
47670;BME280;33408;52.062;11.722;2023-07-02T05:47:30;100166.50;;;18.31;100.00
47670;BME280;33408;52.062;11.722;2023-07-02T05:49:56;100169.41;;;18.27;100.00
47670;BME280;33408;52.062;11.722;2023-07-02T05:52:23;100171.69;;;18.47;100.00
47670;BME280;33408;52.062;11.722;2023-07-02T05:54:51;100169.78;;;18.35;100.00
47670;BME280;33408;52.062;11.722;2023-07-02T05:57:17;100173.44;;;18.61;100.00
47670;BME280;33408;52.062;11.722;2023-07-02T05:59:44;100180.94;;;18.53;100.00
47670;BME280;33408;52.062;11.722;2023-07-02T06:02:11;100168.69;;;18.68;100.00
47670;BME280;33408;52.062;11.722;2023-07-02T06:04:37;100177.41;;;18.68;100.00
47670;BME280;33408;52.062;11.722;2023-07-02T06:07:04;100174.78;;;18.68;100.00
47670;BME280;33408;52.062;11.722;2023-07-02T06:09:30;100179.28;;;18.81;100.00
47670;BME280;33408;52.062;11.722;2023-07-02T06:11:59;100172.44;;;18.64;100.00
47670;BME280;33408;52.062;11.722;2023-07-02T06:14:25;100166.53;;;18.74;100.00
47670;BME280;33408;52.062;11.722;2023-07-02T06:16:52;100170.91;;;18.74;100.00
47670;BME280;33408;52.062;11.722;2023-07-02T06:19:22;100178.91;;;18.72;100.00
47670;BME280;33408;52.062;11.722;2023-07-02T06:21:51;100175.97;;;18.77;100.00
47670;BME280;33408;52.062;11.722;2023-07-02T06:24:18;100178.25;;;18.98;100.00
47670;BME280;33408;52.062;11.722;2023-07-02T06:26:45;100165.13;;;18.98;100.00
47670;BME280;33408;52.062;11.722;2023-07-02T06:29:13;100165.66;;;19.17;100.00
47670;BME280;33408;52.062;11.722;2023-07-02T06:31:39;100167.19;;;19.07;100.00
47670;BME280;33408;52.062;11.722;2023-07-02T06:34:06;100170.81;;;19.19;100.00
47670;BME280;33408;52.062;11.722;2023-07-02T06:36:33;100166.88;;;19.11;100.00
47670;BME280;33408;52.062;11.722;2023-07-02T06:39:00;100172.25;;;18.95;100.00
47670;BME280;33408;52.062;11.722;2023-07-02T06:41:27;100178.31;;;18.82;100.00
47670;BME280;33408;52.062;11.722;2023-07-02T06:43:53;100187.06;;;18.82;100.00
47670;BME280;33408;52.062;11.722;2023-07-02T06:46:21;100182.66;;;18.97;100.00
47670;BME280;33408;52.062;11.722;2023-07-02T06:48:48;100183.97;;;18.90;100.00
47670;BME280;33408;52.062;11.722;2023-07-02T06:51:14;100190.81;;;18.78;100.00
47670;BME280;33408;52.062;11.722;2023-07-02T06:53:42;100196.28;;;18.89;100.00
47670;BME280;33408;52.062;11.722;2023-07-02T06:56:08;100193.56;;;18.91;100.00
47670;BME280;33408;52.062;11.722;2023-07-02T06:58:35;100193.28;;;18.95;100.00
47670;BME280;33408;52.062;11.722;2023-07-02T07:01:02;100197.59;;;18.97;100.00
47670;BME280;33408;52.062;11.722;2023-07-02T07:03:30;100202.91;;;18.81;100.00
47670;BME280;33408;52.062;11.722;2023-07-02T07:05:57;100201.06;;;18.97;100.00
47670;BME280;33408;52.062;11.722;2023-07-02T07:08:23;100207.88;;;19.00;100.00
47670;BME280;33408;52.062;11.722;2023-07-02T07:10:50;100222.78;;;18.70;100.00
47670;BME280;33408;52.062;11.722;2023-07-02T07:13:17;100226.81;;;18.62;100.00
47670;BME280;33408;52.062;11.722;2023-07-02T07:15:43;100239.09;;;18.47;100.00
47670;BME280;33408;52.062;11.722;2023-07-02T07:18:10;100251.88;;;18.22;100.00
47670;BME280;33408;52.062;11.722;2023-07-02T07:20:38;100254.78;;;17.86;100.00
47670;BME280;33408;52.062;11.722;2023-07-02T07:23:06;100278.69;;;17.32;100.00
47670;BME280;33408;52.062;11.722;2023-07-02T07:25:32;100288.25;;;16.82;100.00
47670;BME280;33408;52.062;11.722;2023-07-02T07:27:59;100303.22;;;16.63;100.00
47670;BME280;33408;52.062;11.722;2023-07-02T07:30:26;100292.28;;;16.72;100.00
47670;BME280;33408;52.062;11.722;2023-07-02T07:32:53;100291.31;;;16.74;100.00
47670;BME280;33408;52.062;11.722;2023-07-02T07:35:21;100293.03;;;16.74;100.00
47670;BME280;33408;52.062;11.722;2023-07-02T07:37:49;100277.66;;;16.68;100.00
47670;BME280;33408;52.062;11.722;2023-07-02T07:40:16;100277.34;;;16.74;100.00
47670;BME280;33408;52.062;11.722;2023-07-02T07:42:46;100280.63;;;16.77;100.00
47670;BME280;33408;52.062;11.722;2023-07-02T07:45:12;100281.66;;;16.92;100.00
47670;BME280;33408;52.062;11.722;2023-07-02T07:47:39;100278.06;;;17.11;100.00
47670;BME280;33408;52.062;11.722;2023-07-02T07:50:07;100287.28;;;17.02;100.00
47670;BME280;33408;52.062;11.722;2023-07-02T07:52:36;100282.03;;;16.85;100.00
47670;BME280;33408;52.062;11.722;2023-07-02T07:55:05;100278.66;;;16.83;100.00
47670;BME280;33408;52.062;11.722;2023-07-02T07:57:34;100274.34;;;16.82;100.00
47670;BME280;33408;52.062;11.722;2023-07-02T08:00:00;100285.81;;;16.97;100.00
47670;BME280;33408;52.062;11.722;2023-07-02T08:02:29;100278.38;;;16.89;100.00
47670;BME280;33408;52.062;11.722;2023-07-02T08:04:56;100279.72;;;16.78;100.00
47670;BME280;33408;52.062;11.722;2023-07-02T08:07:22;100291.69;;;17.02;100.00
47670;BME280;33408;52.062;11.722;2023-07-02T08:09:49;100291.38;;;17.24;100.00
47670;BME280;33408;52.062;11.722;2023-07-02T08:12:17;100303.25;;;17.47;100.00
47670;BME280;33408;52.062;11.722;2023-07-02T08:14:43;100297.72;;;17.52;100.00
47670;BME280;33408;52.062;11.722;2023-07-02T08:17:10;100305.44;;;17.86;100.00
47670;BME280;33408;52.062;11.722;2023-07-02T08:19:37;100296.75;;;18.02;100.00
47670;BME280;33408;52.062;11.722;2023-07-02T08:22:04;100299.25;;;18.19;100.00
47670;BME280;33408;52.062;11.722;2023-07-02T08:24:30;100298.38;;;18.80;100.00
47670;BME280;33408;52.062;11.722;2023-07-02T08:26:57;100291.09;;;19.28;100.00
47670;BME280;33408;52.062;11.722;2023-07-02T08:29:25;100284.88;;;19.58;100.00
47670;BME280;33408;52.062;11.722;2023-07-02T08:31:52;100280.22;;;19.05;100.00
47670;BME280;33408;52.062;11.722;2023-07-02T08:34:18;100280.50;;;19.29;100.00
47670;BME280;33408;52.062;11.722;2023-07-02T08:36:45;100289.13;;;18.88;100.00
47670;BME280;33408;52.062;11.722;2023-07-02T08:39:11;100288.22;;;19.18;100.00
47670;BME280;33408;52.062;11.722;2023-07-02T08:41:43;100280.00;;;19.52;100.00
47670;BME280;33408;52.062;11.722;2023-07-02T08:44:11;100280.78;;;19.10;100.00
47670;BME280;33408;52.062;11.722;2023-07-02T08:46:40;100289.50;;;19.25;100.00
47670;BME280;33408;52.062;11.722;2023-07-02T08:49:07;100289.50;;;19.25;100.00
47670;BME280;33408;52.062;11.722;2023-07-02T08:51:34;100301.22;;;19.48;100.00
47670;BME280;33408;52.062;11.722;2023-07-02T08:54:01;100292.06;;;19.83;100.00
47670;BME280;33408;52.062;11.722;2023-07-02T08:56:28;100284.88;;;19.58;100.00
47670;BME280;33408;52.062;11.722;2023-07-02T08:58:55;100298.97;;;19.57;100.00
47670;BME280;33408;52.062;11.722;2023-07-02T09:01:22;100298.28;;;19.82;100.00
47670;BME280;33408;52.062;11.722;2023-07-02T09:03:50;100294.00;;;19.94;100.00
47670;BME280;33408;52.062;11.722;2023-07-02T09:06:18;100289.78;;;20.18;100.00
47670;BME280;33408;52.062;11.722;2023-07-02T09:08:45;100295.19;;;19.61;100.00
47670;BME280;33408;52.062;11.722;2023-07-02T09:11:13;100297.13;;;19.72;100.00
47670;BME280;33408;52.062;11.722;2023-07-02T09:13:52;100288.72;;;20.21;100.00
47670;BME280;33408;52.062;11.722;2023-07-02T09:16:27;100285.53;;;20.43;100.00
47670;BME280;33408;52.062;11.722;2023-07-02T09:19:00;100278.78;;;20.52;100.00
47670;BME280;33408;52.062;11.722;2023-07-02T09:21:27;100278.06;;;20.50;100.00
47670;BME280;33408;52.062;11.722;2023-07-02T09:23:54;100292.78;;;20.52;100.00
47670;BME280;33408;52.062;11.722;2023-07-02T09:26:26;100291.22;;;20.50;100.00
47670;BME280;33408;52.062;11.722;2023-07-02T09:29:00;100287.75;;;19.82;100.00
47670;BME280;33408;52.062;11.722;2023-07-02T09:31:27;100282.00;;;19.75;100.00
47670;BME280;33408;52.062;11.722;2023-07-02T09:34:02;100284.81;;;19.72;100.00
47670;BME280;33408;52.062;11.722;2023-07-02T09:36:28;100299.31;;;19.65;100.00
47670;BME280;33408;52.062;11.722;2023-07-02T09:38:56;100303.41;;;19.42;100.00
47670;BME280;33408;52.062;11.722;2023-07-02T09:41:23;100309.03;;;19.36;100.00
47670;BME280;33408;52.062;11.722;2023-07-02T09:44:07;100306.22;;;18.95;100.00
47670;BME280;33408;52.062;11.722;2023-07-02T09:46:37;100311.84;;;19.18;100.00
47670;BME280;33408;52.062;11.722;2023-07-02T09:49:06;100300.88;;;20.09;100.00
47670;BME280;33408;52.062;11.722;2023-07-02T09:51:35;100305.50;;;20.06;100.00
47670;BME280;33408;52.062;11.722;2023-07-02T09:54:02;100298.34;;;19.95;96.85
47670;BME280;33408;52.062;11.722;2023-07-02T09:56:28;100300.84;;;20.64;93.67
47670;BME280;33408;52.062;11.722;2023-07-02T09:58:55;100299.28;;;20.87;85.40
47670;BME280;33408;52.062;11.722;2023-07-02T10:01:23;100300.66;;;21.05;81.75
47670;BME280;33408;52.062;11.722;2023-07-02T10:03:49;100290.09;;;20.92;77.89
47670;BME280;33408;52.062;11.722;2023-07-02T10:06:17;100303.81;;;20.85;81.51
47670;BME280;33408;52.062;11.722;2023-07-02T10:08:52;100289.53;;;20.49;75.10
47670;BME280;33408;52.062;11.722;2023-07-02T10:11:19;100291.59;;;21.09;79.20
47670;BME280;33408;52.062;11.722;2023-07-02T10:13:45;100290.72;;;21.22;76.05
47670;BME280;33408;52.062;11.722;2023-07-02T10:16:12;100283.88;;;21.19;75.25
47670;BME280;33408;52.062;11.722;2023-07-02T10:18:39;100291.97;;;21.29;73.93
47670;BME280;33408;52.062;11.722;2023-07-02T10:21:15;100289.25;;;21.18;72.79
47670;BME280;33408;52.062;11.722;2023-07-02T10:23:44;100302.84;;;21.11;71.36
47670;BME280;33408;52.062;11.722;2023-07-02T10:26:13;100304.56;;;20.87;70.75
47670;BME280;33408;52.062;11.722;2023-07-02T10:28:39;100303.59;;;21.13;71.57
47670;BME280;33408;52.062;11.722;2023-07-02T10:31:17;100303.69;;;21.12;70.57
47670;BME280;33408;52.062;11.722;2023-07-02T10:33:44;100302.03;;;21.74;71.84
47670;BME280;33408;52.062;11.722;2023-07-02T10:36:17;100297.94;;;21.44;70.65
47670;BME280;33408;52.062;11.722;2023-07-02T10:38:45;100307.44;;;21.46;66.96
47670;BME280;33408;52.062;11.722;2023-07-02T10:41:22;100310.84;;;21.36;68.33
47670;BME280;33408;52.062;11.722;2023-07-02T10:43:48;100310.41;;;21.55;69.14
47670;BME280;33408;52.062;11.722;2023-07-02T10:46:18;100301.78;;;21.53;68.81
47670;BME280;33408;52.062;11.722;2023-07-02T10:48:51;100304.72;;;21.35;69.40
47670;BME280;33408;52.062;11.722;2023-07-02T10:51:17;100321.28;;;21.50;69.59
47670;BME280;33408;52.062;11.722;2023-07-02T10:53:46;100303.88;;;21.35;68.77
47670;BME280;33408;52.062;11.722;2023-07-02T10:56:15;100310.19;;;21.95;71.46
47670;BME280;33408;52.062;11.722;2023-07-02T10:58:42;100311.31;;;21.66;69.08
47670;BME280;33408;52.062;11.722;2023-07-02T11:01:09;100305.41;;;21.76;67.46
47670;BME280;33408;52.062;11.722;2023-07-02T11:03:36;100316.41;;;22.18;68.90
47670;BME280;33408;52.062;11.722;2023-07-02T11:06:03;100304.56;;;21.99;63.90
47670;BME280;33408;52.062;11.722;2023-07-02T11:08:36;100296.97;;;21.71;62.15
47670;BME280;33408;52.062;11.722;2023-07-02T11:11:08;100307.09;;;22.01;65.79
47670;BME280;33408;52.062;11.722;2023-07-02T11:13:34;100303.88;;;22.33;66.55
47670;BME280;33408;52.062;11.722;2023-07-02T11:16:18;100313.94;;;22.03;66.83
47670;BME280;33408;52.062;11.722;2023-07-02T11:18:44;100324.88;;;21.49;65.45
47670;BME280;33408;52.062;11.722;2023-07-02T11:21:11;100321.44;;;22.45;67.28
47670;BME280;33408;52.062;11.722;2023-07-02T11:23:38;100319.13;;;22.76;65.99
47670;BME280;33408;52.062;11.722;2023-07-02T11:26:04;100319.41;;;22.25;63.60
47670;BME280;33408;52.062;11.722;2023-07-02T11:28:32;100325.75;;;22.11;62.85
47670;BME280;33408;52.062;11.722;2023-07-02T11:31:00;100328.44;;;21.61;66.26
47670;BME280;33408;52.062;11.722;2023-07-02T11:33:35;100329.31;;;21.48;62.26
47670;BME280;33408;52.062;11.722;2023-07-02T11:36:02;100319.66;;;21.97;62.45
47670;BME280;33408;52.062;11.722;2023-07-02T11:38:29;100322.00;;;21.89;61.77
47670;BME280;33408;52.062;11.722;2023-07-02T11:40:55;100316.63;;;22.39;63.66
47670;BME280;33408;52.062;11.722;2023-07-02T11:43:22;100326.31;;;23.32;63.82
47670;BME280;33408;52.062;11.722;2023-07-02T11:45:50;100317.69;;;22.72;58.88
47670;BME280;33408;52.062;11.722;2023-07-02T11:48:16;100310.72;;;22.71;58.69
47670;BME280;33408;52.062;11.722;2023-07-02T11:50:43;100324.78;;;22.36;57.64
47670;BME280;33408;52.062;11.722;2023-07-02T11:53:10;100322.06;;;22.25;59.63
47670;BME280;33408;52.062;11.722;2023-07-02T11:55:36;100319.69;;;22.57;58.90
47670;BME280;33408;52.062;11.722;2023-07-02T11:58:04;100318.28;;;22.64;60.79
47670;BME280;33408;52.062;11.722;2023-07-02T12:00:30;100322.13;;;22.36;60.12
47670;BME280;33408;52.062;11.722;2023-07-02T12:02:58;100327.50;;;22.58;57.17
47670;BME280;33408;52.062;11.722;2023-07-02T12:05:25;100329.22;;;22.11;57.21
47670;BME280;33408;52.062;11.722;2023-07-02T12:07:51;100325.84;;;21.48;58.23
47670;BME280;33408;52.062;11.722;2023-07-02T12:10:18;100326.28;;;22.51;58.90
47670;BME280;33408;52.062;11.722;2023-07-02T12:12:44;100334.97;;;22.76;57.37
47670;BME280;33408;52.062;11.722;2023-07-02T12:15:11;100335.63;;;21.83;57.64
47670;BME280;33408;52.062;11.722;2023-07-02T12:17:37;100343.06;;;22.26;58.56
47670;BME280;33408;52.062;11.722;2023-07-02T12:20:06;100344.59;;;22.17;57.79
47670;BME280;33408;52.062;11.722;2023-07-02T12:22:33;100334.50;;;22.11;58.91
47670;BME280;33408;52.062;11.722;2023-07-02T12:24:59;100339.53;;;22.14;58.29
47670;BME280;33408;52.062;11.722;2023-07-02T12:27:26;100344.31;;;22.09;57.94
47670;BME280;33408;52.062;11.722;2023-07-02T12:29:53;100342.91;;;22.16;58.27
47670;BME280;33408;52.062;11.722;2023-07-02T12:32:20;100340.94;;;22.07;57.43
47670;BME280;33408;52.062;11.722;2023-07-02T12:34:46;100340.28;;;22.76;57.91